Аэропорт: Ширак. Гюмри

ICAO: UDSG

METAR:
2018/07/16 19:30
UDSG 161930Z 35003KT 290V030 9999 NSC 17/09 Q1013 R02/CLRD70 NOSIG
METAR:
2018/07/16 18:00
TAF UDSG 161702Z 1618/1718 04006KT 9999 SCT040CB 
      TEMPO 1708/1717 VRB20KT -TSRA BKN030CB